createdAt,value
2024-02-08T00:04:06.545Z,73
2024-02-08T00:16:06.530Z,73
2024-02-08T00:28:06.471Z,73
2024-02-08T00:40:06.451Z,73
2024-02-08T00:52:06.607Z,73
2024-02-08T01:04:08.312Z,74.5
2024-02-08T01:16:06.500Z,74.5
2024-02-08T01:28:06.469Z,74.5
2024-02-08T01:40:06.616Z,74.5
2024-02-08T01:52:06.595Z,74.5
2024-02-08T02:04:06.595Z,74.5
2024-02-08T02:16:06.736Z,74.5
2024-02-08T02:28:06.674Z,74.5
2024-02-08T02:40:06.639Z,74.5
2024-02-08T02:52:06.599Z,74.5
2024-02-08T03:04:06.780Z,74.5
2024-02-08T03:16:06.690Z,74.5
2024-02-08T03:28:06.681Z,75
2024-02-08T03:40:06.637Z,75
2024-02-08T03:52:06.805Z,75
2024-02-08T04:04:06.814Z,75
2024-02-08T04:16:06.698Z,75
2024-02-08T04:28:06.657Z,75
2024-02-08T04:40:06.856Z,75
2024-02-08T04:52:06.783Z,75.5
2024-02-08T05:04:06.813Z,75.5
2024-02-08T05:16:06.952Z,76
2024-02-08T05:28:06.920Z,75.5
2024-02-08T05:40:06.861Z,64
2024-02-08T05:52:06.820Z,65.5
2024-02-08T06:04:07.038Z,68
2024-02-08T06:16:06.964Z,70
2024-02-08T06:28:06.892Z,72.5
2024-02-08T06:40:06.823Z,73.5
2024-02-08T06:52:06.945Z,74.5
2024-02-08T07:04:07.010Z,75
2024-02-08T07:16:06.842Z,71
2024-02-08T07:28:06.858Z,62.5
2024-02-08T07:40:06.963Z,65
2024-02-08T07:52:06.982Z,68
2024-02-08T08:04:07.084Z,71
2024-02-08T08:16:06.990Z,73
2024-02-08T08:28:07.167Z,74.5
2024-02-08T08:40:07.182Z,75.5
2024-02-08T08:52:07.042Z,76
2024-02-08T09:04:07.005Z,76.5
2024-02-08T09:16:07.131Z,76.5
2024-02-08T09:28:07.169Z,77.5
2024-02-08T09:40:07.059Z,77.5
2024-02-08T09:52:07.041Z,78
2024-02-08T10:04:07.596Z,78
2024-02-08T10:16:07.131Z,78
2024-02-08T10:28:07.057Z,78
2024-02-08T10:40:07.261Z,78
2024-02-08T10:52:07.419Z,79
2024-02-08T11:04:07.382Z,79.5
2024-02-08T11:16:07.482Z,79.5
2024-02-08T11:28:14.124Z,78.5
2024-02-08T11:40:07.532Z,79.5
2024-02-08T11:52:07.291Z,80
2024-02-08T12:04:07.225Z,80
2024-02-08T12:16:07.674Z,80
2024-02-08T12:28:07.154Z,79.5
2024-02-08T12:40:07.332Z,79.5
2024-02-08T12:52:07.241Z,79.5
2024-02-08T13:04:07.316Z,79.5
2024-02-08T13:16:07.366Z,71
2024-02-08T13:28:07.435Z,66
2024-02-08T13:40:07.343Z,69.5
2024-02-08T13:52:07.287Z,72
2024-02-08T14:04:07.456Z,74
2024-02-08T14:16:07.590Z,75.5
2024-02-08T14:28:07.360Z,75
2024-02-08T14:40:07.691Z,78
2024-02-08T14:52:07.418Z,79.5
2024-02-08T15:04:07.388Z,79.5
2024-02-08T15:16:07.449Z,80
2024-02-08T15:28:07.502Z,80
2024-02-08T15:40:07.424Z,80.5
2024-02-08T15:52:07.658Z,80.5
2024-02-08T16:04:07.357Z,80.5
2024-02-08T16:16:07.789Z,80.5
2024-02-08T16:28:07.694Z,80.5
2024-02-08T16:40:07.487Z,80.5
2024-02-08T16:52:07.642Z,81
2024-02-08T17:04:07.672Z,81
2024-02-08T17:16:07.515Z,81
2024-02-08T17:28:07.907Z,81.5
2024-02-08T17:40:07.712Z,81.5
2024-02-08T17:52:07.979Z,81.5
2024-02-08T18:04:07.558Z,81.5
2024-02-08T18:16:07.552Z,81.5
2024-02-08T18:28:07.835Z,81.5
2024-02-08T18:40:07.614Z,70.5
2024-02-08T18:52:07.614Z,70
2024-02-08T19:04:07.738Z,73
2024-02-08T19:16:07.712Z,75.5
2024-02-08T19:28:08.005Z,77.5
2024-02-08T19:40:07.801Z,78.5
2024-02-08T19:52:08.118Z,79.5
2024-02-08T20:04:08.047Z,80
2024-02-08T20:16:08.150Z,80.5
2024-02-08T20:28:07.902Z,80.5
2024-02-08T20:40:07.912Z,81
2024-02-08T20:52:07.747Z,81
2024-02-08T21:04:07.753Z,81.5
2024-02-08T21:16:07.733Z,78.5
2024-02-08T21:28:07.904Z,67.5
2024-02-08T21:40:08.015Z,65.5
2024-02-08T21:52:07.859Z,69
2024-02-08T22:04:08.067Z,72.5
2024-02-08T22:16:07.751Z,74.5
2024-02-08T22:28:07.909Z,66
2024-02-08T22:40:07.942Z,66
2024-02-08T22:52:07.959Z,70.5
2024-02-08T23:04:08.190Z,73
2024-02-08T23:16:07.920Z,76
2024-02-08T23:28:07.893Z,77.5
2024-02-08T23:40:07.832Z,79
2024-02-08T23:52:08.079Z,79.5
